createdAt,value
2023-01-21T00:02:58.877Z,102520.0
2023-01-21T00:08:01.124Z,102520.0
2023-01-21T00:12:58.881Z,102530.0
2023-01-21T00:17:58.885Z,102530.0
2023-01-21T00:22:58.886Z,102530.0
2023-01-21T00:27:58.886Z,102540.0
2023-01-21T00:32:58.910Z,102540.0
2023-01-21T00:37:58.958Z,102550.0
2023-01-21T00:42:58.905Z,102550.0
2023-01-21T00:47:58.904Z,102550.0
2023-01-21T00:52:58.903Z,102560.0
2023-01-21T00:57:58.901Z,102570.0
2023-01-21T01:02:59.132Z,102580.0
2023-01-21T01:12:58.911Z,102590.0
2023-01-21T01:17:58.908Z,102620.0
2023-01-21T01:22:58.917Z,102620.0
2023-01-21T01:27:58.917Z,102630.0
2023-01-21T01:32:58.915Z,102650.0
2023-01-21T01:37:58.923Z,102660.0
2023-01-21T01:42:58.920Z,102660.0
2023-01-21T01:47:58.943Z,102670.0
2023-01-21T01:52:58.924Z,102670.0
2023-01-21T01:57:58.935Z,102680.0
2023-01-21T02:02:59.029Z,102690.0
2023-01-21T02:07:58.935Z,102700.0
2023-01-21T02:12:58.932Z,102690.0
2023-01-21T02:17:58.939Z,102690.0
2023-01-21T02:22:58.941Z,102700.0
2023-01-21T02:27:58.940Z,102700.0
2023-01-21T02:32:58.951Z,102720.0
2023-01-21T02:37:58.943Z,102720.0
2023-01-21T02:42:58.952Z,102720.0
2023-01-21T02:47:58.946Z,102730.0
2023-01-21T02:52:58.959Z,102730.0
2023-01-21T02:57:58.955Z,102740.0
2023-01-21T03:02:58.952Z,102760.0
2023-01-21T03:07:58.957Z,102760.0
2023-01-21T03:12:58.956Z,102760.0
2023-01-21T03:17:58.964Z,102760.0
2023-01-21T03:22:58.957Z,102770.0
2023-01-21T03:27:58.972Z,102780.0
2023-01-21T03:32:58.964Z,102790.0
2023-01-21T03:37:58.982Z,102790.0
2023-01-21T03:42:58.975Z,102800.0
2023-01-21T03:47:58.978Z,102800.0
2023-01-21T03:52:59.004Z,102810.0
2023-01-21T03:57:58.973Z,102800.0
2023-01-21T04:02:58.980Z,102800.0
2023-01-21T04:07:58.981Z,102820.0
2023-01-21T04:12:59.010Z,102820.0
2023-01-21T04:17:58.986Z,102820.0
2023-01-21T04:22:58.984Z,102830.0
2023-01-21T04:27:58.997Z,102830.0
2023-01-21T04:32:58.988Z,102840.0
2023-01-21T04:37:58.988Z,102830.0
2023-01-21T04:42:59.000Z,102840.0
2023-01-21T04:47:59.023Z,102850.0
2023-01-21T04:52:59.004Z,102840.0
2023-01-21T04:57:59.005Z,102840.0
2023-01-21T05:02:59.006Z,102840.0
2023-01-21T05:07:59.009Z,102850.0
2023-01-21T05:12:59.012Z,102850.0
2023-01-21T05:17:59.008Z,102860.0
2023-01-21T05:22:59.037Z,102870.0
2023-01-21T05:27:59.025Z,102880.0
2023-01-21T05:32:59.026Z,102880.0
2023-01-21T05:38:00.472Z,102880.0
2023-01-21T05:42:59.019Z,102890.0
2023-01-21T05:47:59.027Z,102900.0
2023-01-21T05:52:59.049Z,102910.0
2023-01-21T05:57:59.046Z,102900.0
2023-01-21T06:02:59.026Z,102910.0
2023-01-21T06:07:59.040Z,102910.0
2023-01-21T06:12:59.047Z,102920.0
2023-01-21T06:17:59.042Z,102930.0
2023-01-21T06:22:59.045Z,102940.0
2023-01-21T06:27:59.044Z,102950.0
2023-01-21T06:32:59.053Z,102950.0
2023-01-21T06:37:59.057Z,102960.0
2023-01-21T06:42:59.052Z,102960.0
2023-01-21T06:47:59.174Z,102970.0
2023-01-21T06:52:59.053Z,102990.0
2023-01-21T06:57:59.057Z,102980.0
2023-01-21T07:02:59.098Z,102980.0
2023-01-21T07:07:59.057Z,102990.0
2023-01-21T07:12:59.061Z,103010.0
2023-01-21T07:17:59.070Z,103020.0
2023-01-21T07:22:59.065Z,103030.0
2023-01-21T07:27:59.064Z,103030.0
2023-01-21T07:32:59.075Z,103040.0
2023-01-21T07:37:59.074Z,103040.0
2023-01-21T07:42:59.076Z,103050.0
2023-01-21T07:47:59.086Z,103060.0
2023-01-21T07:52:59.088Z,103070.0
2023-01-21T07:57:59.082Z,103070.0
2023-01-21T08:02:59.213Z,103080.0
2023-01-21T08:07:59.084Z,103090.0
2023-01-21T08:12:59.084Z,103100.0
2023-01-21T08:17:59.095Z,103120.0
2023-01-21T08:22:59.093Z,103120.0
2023-01-21T08:27:59.104Z,103140.0
2023-01-21T08:32:59.111Z,103140.0
2023-01-21T08:37:59.105Z,103150.0
2023-01-21T08:42:59.102Z,103150.0
2023-01-21T08:47:59.112Z,103160.0
2023-01-21T08:52:59.108Z,103170.0
2023-01-21T08:57:59.206Z,103170.0
2023-01-21T09:02:59.146Z,103170.0
2023-01-21T09:07:59.118Z,103170.0
2023-01-21T09:12:59.120Z,103170.0
2023-01-21T09:17:59.125Z,103180.0
2023-01-21T09:22:59.127Z,103170.0
2023-01-21T09:27:59.130Z,103180.0
2023-01-21T09:32:59.136Z,103180.0
2023-01-21T09:37:59.134Z,103180.0
2023-01-21T09:42:59.132Z,103180.0
2023-01-21T09:47:59.142Z,103190.0
2023-01-21T09:52:59.141Z,103190.0
2023-01-21T09:57:59.146Z,103200.0
2023-01-21T10:02:59.147Z,103200.0
2023-01-21T10:07:59.156Z,103210.0
2023-01-21T10:12:59.165Z,103210.0
2023-01-21T10:17:59.174Z,103220.0
2023-01-21T10:22:59.165Z,103220.0
2023-01-21T10:27:59.164Z,103200.0
2023-01-21T10:32:59.168Z,103200.0
2023-01-21T10:37:59.177Z,103200.0
2023-01-21T10:42:59.183Z,103190.0
2023-01-21T10:47:59.180Z,103200.0
2023-01-21T10:52:59.184Z,103200.0
2023-01-21T10:57:59.184Z,103200.0
2023-01-21T11:02:59.184Z,103200.0
2023-01-21T11:07:59.192Z,103200.0
2023-01-21T11:12:59.194Z,103200.0
2023-01-21T11:17:59.206Z,103190.0
2023-01-21T11:22:59.435Z,103190.0
2023-01-21T11:27:59.216Z,103200.0
2023-01-21T11:32:59.203Z,103200.0
2023-01-21T11:37:59.200Z,103190.0
2023-01-21T11:42:59.203Z,103190.0
2023-01-21T11:47:59.222Z,103200.0
2023-01-21T11:53:01.803Z,103200.0
2023-01-21T11:57:59.219Z,103190.0
2023-01-21T12:02:59.304Z,103200.0
2023-01-21T12:07:59.220Z,103200.0
2023-01-21T12:12:59.227Z,103190.0
2023-01-21T12:17:59.236Z,103200.0
2023-01-21T12:22:59.243Z,103200.0
2023-01-21T12:27:59.233Z,103210.0
2023-01-21T12:32:59.245Z,103200.0
2023-01-21T12:37:59.234Z,103210.0
2023-01-21T12:42:59.242Z,103210.0
2023-01-21T12:47:59.240Z,103220.0
2023-01-21T12:52:59.249Z,103200.0
2023-01-21T12:57:59.247Z,103210.0
2023-01-21T13:02:59.248Z,103200.0
2023-01-21T13:07:59.252Z,103200.0
2023-01-21T13:12:59.259Z,103200.0
2023-01-21T13:17:59.255Z,103200.0
2023-01-21T13:22:59.271Z,103190.0
2023-01-21T13:27:59.265Z,103200.0
2023-01-21T13:32:59.292Z,103190.0
2023-01-21T13:37:59.273Z,103200.0
2023-01-21T13:42:59.273Z,103200.0
2023-01-21T13:47:59.268Z,103200.0
2023-01-21T13:52:59.271Z,103200.0
2023-01-21T13:58:01.054Z,103200.0
2023-01-21T14:02:59.277Z,103210.0
2023-01-21T14:07:59.280Z,103210.0
2023-01-21T14:12:59.289Z,103210.0
2023-01-21T14:17:59.287Z,103220.0
2023-01-21T14:22:59.302Z,103220.0
2023-01-21T14:27:59.292Z,103210.0
2023-01-21T14:32:59.302Z,103220.0
2023-01-21T14:37:59.299Z,103230.0
2023-01-21T14:42:59.343Z,103230.0
2023-01-21T14:47:59.313Z,103230.0
2023-01-21T14:52:59.312Z,103240.0
2023-01-21T14:57:59.312Z,103230.0
2023-01-21T15:02:59.431Z,103240.0
2023-01-21T15:07:59.308Z,103240.0
2023-01-21T15:12:59.308Z,103240.0
2023-01-21T15:17:59.313Z,103230.0
2023-01-21T15:22:59.318Z,103230.0
2023-01-21T15:27:59.331Z,103240.0
2023-01-21T15:33:01.649Z,103230.0
2023-01-21T15:37:59.327Z,103230.0
2023-01-21T15:42:59.329Z,103240.0
2023-01-21T15:47:59.336Z,103240.0
2023-01-21T15:52:59.516Z,103240.0
2023-01-21T15:57:59.334Z,103240.0
2023-01-21T16:02:59.440Z,103240.0
2023-01-21T16:07:59.350Z,103240.0
2023-01-21T16:12:59.339Z,103250.0
2023-01-21T16:17:59.343Z,103250.0
2023-01-21T16:22:59.347Z,103250.0
2023-01-21T16:27:59.356Z,103250.0
2023-01-21T16:32:59.346Z,103270.0
2023-01-21T16:37:59.352Z,103270.0
2023-01-21T16:42:59.352Z,103270.0
2023-01-21T16:47:59.367Z,103270.0
2023-01-21T16:52:59.361Z,103270.0
2023-01-21T16:57:59.372Z,103270.0
2023-01-21T17:02:59.591Z,103280.0
2023-01-21T17:07:59.367Z,103290.0
2023-01-21T17:12:59.360Z,103290.0
2023-01-21T17:17:59.368Z,103300.0
2023-01-21T17:22:59.387Z,103290.0
2023-01-21T17:27:59.389Z,103290.0
2023-01-21T17:32:59.371Z,103300.0
2023-01-21T17:37:59.378Z,103300.0
2023-01-21T17:42:59.387Z,103300.0
2023-01-21T17:48:09.379Z,103290.0
2023-01-21T17:52:59.383Z,103310.0
2023-01-21T17:57:59.383Z,103310.0
2023-01-21T18:02:59.430Z,103320.0
2023-01-21T18:07:59.387Z,103320.0
2023-01-21T18:12:59.433Z,103320.0
2023-01-21T18:17:59.394Z,103310.0
2023-01-21T18:22:59.419Z,103320.0
2023-01-21T18:27:59.436Z,103330.0
2023-01-21T18:32:59.400Z,103330.0
2023-01-21T18:37:59.401Z,103330.0
2023-01-21T18:42:59.406Z,103320.0
2023-01-21T18:47:59.407Z,103340.0
2023-01-21T18:52:59.411Z,103340.0
2023-01-21T18:57:59.416Z,103330.0
2023-01-21T19:02:59.428Z,103340.0
2023-01-21T19:07:59.434Z,103330.0
2023-01-21T19:12:59.433Z,103340.0
2023-01-21T19:17:59.428Z,103340.0
2023-01-21T19:22:59.429Z,103350.0
2023-01-21T19:27:59.429Z,103340.0
2023-01-21T19:32:59.433Z,103350.0
2023-01-21T19:37:59.434Z,103340.0
2023-01-21T19:42:59.445Z,103340.0
2023-01-21T19:47:59.434Z,103330.0
2023-01-21T19:52:59.440Z,103330.0
2023-01-21T19:57:59.437Z,103330.0
2023-01-21T20:02:59.439Z,103320.0
2023-01-21T20:07:59.431Z,103330.0
2023-01-21T20:12:59.438Z,103340.0
2023-01-21T20:17:59.439Z,103340.0
2023-01-21T20:22:59.444Z,103350.0
2023-01-21T20:27:59.461Z,103340.0
2023-01-21T20:32:59.447Z,103350.0
2023-01-21T20:37:59.453Z,103350.0
2023-01-21T20:42:59.465Z,103350.0
2023-01-21T20:47:59.451Z,103340.0
2023-01-21T20:52:59.456Z,103340.0
2023-01-21T20:57:59.470Z,103340.0
2023-01-21T21:02:59.458Z,103330.0
2023-01-21T21:07:59.463Z,103340.0
2023-01-21T21:12:59.471Z,103330.0
2023-01-21T21:17:59.486Z,103340.0
2023-01-21T21:22:59.470Z,103340.0
2023-01-21T21:27:59.479Z,103330.0
2023-01-21T21:32:59.483Z,103330.0
2023-01-21T21:37:59.482Z,103340.0
2023-01-21T21:42:59.480Z,103340.0
2023-01-21T21:47:59.515Z,103330.0
2023-01-21T21:52:59.485Z,103340.0
2023-01-21T21:57:59.482Z,103330.0
2023-01-21T22:02:59.487Z,103330.0
2023-01-21T22:07:59.482Z,103330.0
2023-01-21T22:12:59.493Z,103330.0
2023-01-21T22:22:59.507Z,103340.0
2023-01-21T22:27:59.507Z,103340.0
2023-01-21T22:32:59.497Z,103350.0
2023-01-21T22:37:59.501Z,103340.0
2023-01-21T22:42:59.501Z,103340.0
2023-01-21T22:47:59.501Z,103330.0
2023-01-21T22:52:59.511Z,103330.0
2023-01-21T22:57:59.508Z,103310.0
2023-01-21T23:02:59.506Z,103310.0
2023-01-21T23:17:59.518Z,103300.0
2023-01-21T23:22:59.519Z,103300.0
2023-01-21T23:27:59.517Z,103310.0
2023-01-21T23:32:59.534Z,103300.0
2023-01-21T23:37:59.527Z,103290.0
2023-01-21T23:42:59.538Z,103290.0
2023-01-21T23:47:59.533Z,103300.0
2023-01-21T23:52:59.529Z,103290.0
2023-01-21T23:57:59.535Z,103280.0
